Dubai Express — VRBN8 — position and weather

sailwx.info

Track history (hours):
 
Tides and Currents Weather Stations Pressure Air Temp Water Temp Dewpoint Dewpoint Depression Visibility Wind Speed Wind Dir Waves Ship Positions

Dubai Express

Last reported at 2017-Nov-16 09:01 UTC. Time now 2017-Nov-24 18:23 UTC.
Position N 25°47' W 079°38'.
Warning: this ship's position is 8 days out of date.

Type: Ship (hazmat cat A). MMSI: 477097400.

Date/timePositionNaut miles runAvg speedWind from/ knotsBaromVisibWave heightAir tempDewpointWater temp
2017-Nov-16 09:01N 25°47' W 079°38'017.3
2017-Nov-16 09:00N 25°47' W 079°38'816.2
2017-Nov-16 08:31N 25°53' W 079°44'816.3
2017-Nov-16 08:00N 25°57' W 079°52'816.1
2017-Nov-16 07:31N 26°03' W 079°59'612.3
2017-Nov-16 07:01N 26°05' W 080°05'2 3.8
2017-Nov-16 06:31N 26°05' W 080°07'0 0.4
2017-Nov-16 05:59N 26°04' W 080°07'0 0.0
2017-Nov-16 05:29N 26°04' W 080°07'0 0.0
2017-Nov-16 04:59N 26°04' W 080°07'0 0.0
2017-Nov-16 04:29N 26°04' W 080°07'0 0.0
2017-Nov-16 03:50N 26°04' W 080°07'0 0.0
2017-Nov-16 03:20N 26°04' W 080°07'0 0.0
2017-Nov-16 02:50N 26°04' W 080°07'0 0.0
2017-Nov-16 02:20N 26°04' W 080°07'0 0.0
2017-Nov-16 01:50N 26°04' W 080°07'0 0.0
2017-Nov-16 01:20N 26°04' W 080°07'0 0.0
2017-Nov-16 00:53N 26°04' W 080°07'0 0.0
2017-Nov-16 00:23N 26°04' W 080°07'0 0.0
2017-Nov-15 23:53N 26°04' W 080°07'0 0.0
2017-Nov-15 23:23N 26°04' W 080°07'0 0.0
2017-Nov-15 22:50N 26°04' W 080°07'0 0.0
2017-Nov-15 22:23N 26°04' W 080°07'0 0.0
2017-Nov-15 21:38N 26°04' W 080°07'0 0.0
2017-Nov-15 21:23N 26°04' W 080°07'0 0.0
2017-Nov-15 20:53N 26°04' W 080°07'0 0.0
2017-Nov-15 20:23N 26°04' W 080°07'0 0.0
2017-Nov-15 19:53N 26°04' W 080°07'0 0.0
2017-Nov-15 19:26N 26°04' W 080°07'0 0.0
2017-Nov-15 18:56N 26°04' W 080°07'0 0.0
2017-Nov-15 18:26N 26°04' W 080°07'0 0.0
2017-Nov-15 17:56N 26°04' W 080°07'0 0.0
2017-Nov-15 17:26N 26°04' W 080°07'0 0.5
2017-Nov-15 17:00N 26°04' W 080°07'1 2.3
2017-Nov-15 16:30N 26°06' W 080°07'4 8.9
2017-Nov-15 16:00N 26°05' W 080°02'3 7.0
2017-Nov-15 15:30N 26°04' W 079°58'1 1.2
2017-Nov-15 15:00N 26°03' W 079°59'3 6.4
2017-Nov-15 14:30N 26°07' W 079°59'3 6.5
2017-Nov-15 14:00N 26°10' W 079°59'510.3
2017-Nov-15 13:30N 26°15' W 079°58'510.4
2017-Nov-15 13:00N 26°20' W 079°58'612.6
2017-Nov-15 12:30N 26°26' W 079°57'713.1
2017-Nov-15 11:59N 26°33' W 079°56'612.4
2017-Nov-15 11:30N 26°39' W 079°55'815.9
2017-Nov-15 11:00N 26°47' W 079°53'1018.0
2017-Nov-15 10:27N 26°57' W 079°51'32917.8
2017-Nov-14 16:00N 32°25' W 079°32'813.9
2017-Nov-14 15:27N 32°33' W 079°33'5 9.9
2017-Nov-14 14:59N 32°37' W 079°35'612.1
2017-Nov-14 14:30N 32°40' W 079°41'713.7
2017-Nov-14 14:00N 32°43' W 079°48'811.4
2017-Nov-14 13:19N 32°49' W 079°55'2 5.4
2017-Nov-14 13:01N 32°50' W 079°54'0 0.1
2017-Nov-14 12:26N 32°50' W 079°54'0 0.0
2017-Nov-14 11:59N 32°50' W 079°54'0 0.0
2017-Nov-14 11:29N 32°50' W 079°54'0 0.0
2017-Nov-14 10:59N 32°50' W 079°54'0 0.0
2017-Nov-14 10:29N 32°50' W 079°54'0 0.0
2017-Nov-14 09:59N 32°50' W 079°54'0 0.0
2017-Nov-14 09:29N 32°50' W 079°54'0 0.0
2017-Nov-14 08:59N 32°50' W 079°54'0 0.0
2017-Nov-14 08:26N 32°50' W 079°54'0 0.0
2017-Nov-14 07:59N 32°50' W 079°54'0 0.0
2017-Nov-14 07:29N 32°50' W 079°54'0 0.0
2017-Nov-14 06:59N 32°50' W 079°54'0 0.0
2017-Nov-14 06:29N 32°50' W 079°54'0 0.0
2017-Nov-14 05:59N 32°50' W 079°54'0 0.0
2017-Nov-14 05:29N 32°50' W 079°54'0 0.0
2017-Nov-14 04:59N 32°50' W 079°54'0 0.0
2017-Nov-14 04:29N 32°50' W 079°54'0 0.0
2017-Nov-14 03:59N 32°50' W 079°54'0 0.0
2017-Nov-14 03:29N 32°50' W 079°54'0 0.0
2017-Nov-14 02:59N 32°50' W 079°54'0 0.0
2017-Nov-14 02:29N 32°50' W 079°54'0 0.0
2017-Nov-14 01:59N 32°50' W 079°54'0 0.0
2017-Nov-14 01:29N 32°50' W 079°54'0 0.0
2017-Nov-14 00:59N 32°50' W 079°54'0 0.0
2017-Nov-14 00:29N 32°50' W 079°54'0 0.0
2017-Nov-13 23:59N 32°50' W 079°54'0 0.1
2017-Nov-13 23:31N 32°50' W 079°54'3 5.4
2017-Nov-13 23:00N 32°48' W 079°55'510.4
2017-Nov-13 22:30N 32°44' W 079°50'815.2
2017-Nov-13 22:00N 32°40' W 079°43'314 8.7
2017-Nov-12 10:03N 36°51' W 075°52'010.0
2017-Nov-12 10:00N 36°52' W 075°52'5 9.8
2017-Nov-12 09:30N 36°55' W 075°56'4 8.9
2017-Nov-12 09:00N 36°58' W 075°60'6116.4
2017-Nov-12 05:18N 37°58' W 076°11'617.7
2017-Nov-12 04:59N 38°04' W 076°13'3017.5
2017-Nov-12 03:16N 38°32' W 076°26'516.9
2017-Nov-12 02:58N 38°37' W 076°26'817.0
2017-Nov-12 02:30N 38°45' W 076°26'917.5
2017-Nov-12 02:00N 38°54' W 076°24'815.7
2017-Nov-12 01:30N 39°02' W 076°23'714.6
2017-Nov-12 01:00N 39°09' W 076°25'611.0
2017-Nov-12 00:31N 39°12' W 076°30'4 8.3
2017-Nov-12 00:01N 39°15' W 076°34'1 1.0
2017-Nov-11 23:30N 39°15' W 076°33'0 0.0
2017-Nov-11 23:00N 39°15' W 076°33'0 0.0
2017-Nov-11 22:30N 39°15' W 076°33'0 0.0
2017-Nov-11 22:00N 39°15' W 076°33'0 0.0
2017-Nov-11 21:30N 39°15' W 076°33'0 0.0
2017-Nov-11 21:00N 39°15' W 076°33'0 0.0
2017-Nov-11 20:30N 39°15' W 076°33'0 0.0
2017-Nov-11 20:00N 39°15' W 076°33'0 0.0
2017-Nov-11 19:30N 39°15' W 076°33'0 0.0
2017-Nov-11 19:00N 39°15' W 076°33'0 0.0
2017-Nov-11 18:30N 39°15' W 076°33'0 0.0
2017-Nov-11 18:00N 39°15' W 076°33'0 0.0
2017-Nov-11 17:30N 39°15' W 076°33'0 0.0
2017-Nov-11 16:57N 39°15' W 076°33'0 0.0
2017-Nov-11 16:21N 39°15' W 076°33'0 0.0
2017-Nov-11 16:00N 39°15' W 076°33'0 0.0
2017-Nov-11 15:27N 39°15' W 076°33'0 0.0
2017-Nov-11 15:00N 39°15' W 076°33'0 0.0
2017-Nov-11 14:30N 39°15' W 076°33'0 0.0
2017-Nov-11 14:00N 39°15' W 076°33'0 0.0
2017-Nov-11 13:30N 39°15' W 076°33'0 0.0
2017-Nov-11 13:00N 39°15' W 076°33'0 0.0
2017-Nov-11 12:30N 39°15' W 076°33'0 0.0
2017-Nov-11 12:00N 39°15' W 076°33'0 0.4
2017-Nov-11 11:31N 39°15' W 076°33'2 3.7
2017-Nov-11 11:01N 39°13' W 076°32'4 8.5
2017-Nov-11 10:30N 39°11' W 076°28'713.0
2017-Nov-11 10:00N 39°05' W 076°24'815.5
2017-Nov-11 09:30N 38°58' W 076°24'815.9
2017-Nov-11 09:00N 38°50' W 076°24'1016.1
2017-Nov-11 08:22N 38°39' W 076°25'3715.6
2017-Nov-11 06:00N 38°04' W 076°13'4114.8
2017-Nov-11 03:14N 37°23' W 076°05'414.8
2017-Nov-11 02:58N 37°19' W 076°06'715.3
2017-Nov-11 02:30N 37°13' W 076°09'714.4
2017-Nov-11 02:00N 37°06' W 076°07'714.5
2017-Nov-11 01:30N 36°60' W 076°01'611.2
2017-Nov-11 01:01N 36°56' W 075°56'4 8.8
2017-Nov-11 00:30N 36°53' W 075°52'18212.0
2017-Nov-10 09:21N 39°29' W 073°53'1216.2
2017-Nov-10 08:39N 39°40' W 073°53'716.2
2017-Nov-10 08:13N 39°47' W 073°52'3513.0
2017-Nov-10 05:30N 40°22' W 073°48'5 9.5
2017-Nov-10 04:58N 40°27' W 073°48'4 8.5
2017-Nov-10 04:30N 40°29' W 073°53'5 9.7
2017-Nov-10 04:00N 40°31' W 073°59'713.4
2017-Nov-10 03:30N 40°37' W 074°03'4 7.4
2017-Nov-10 03:00N 40°39' W 074°07'2 4.4
2017-Nov-10 02:30N 40°39' W 074°10'1 1.6
2017-Nov-10 01:55N 40°39' W 074°11'0 0.0
2017-Nov-10 01:28N 40°39' W 074°11'0 0.0
2017-Nov-10 00:58N 40°39' W 074°11'0 0.0
2017-Nov-10 00:28N 40°39' W 074°11'0 0.0
2017-Nov-09 23:58N 40°39' W 074°11'0 0.0
2017-Nov-09 23:25N 40°39' W 074°11'0 0.0
2017-Nov-09 22:55N 40°39' W 074°11'0 0.0
2017-Nov-09 22:28N 40°39' W 074°11'0 0.0
2017-Nov-09 21:58N 40°39' W 074°11'0 0.0
2017-Nov-09 21:25N 40°39' W 074°11'0 0.0
2017-Nov-09 20:52N 40°39' W 074°11'0 0.0
2017-Nov-09 20:25N 40°39' W 074°11'0 0.0
2017-Nov-09 19:58N 40°39' W 074°11'0 0.0
2017-Nov-09 19:28N 40°39' W 074°11'0 0.0
2017-Nov-09 18:58N 40°39' W 074°11'0 0.0
2017-Nov-09 18:25N 40°39' W 074°11'0 0.0
2017-Nov-09 17:55N 40°39' W 074°11'0 0.0
2017-Nov-09 17:25N 40°39' W 074°11'0 0.0
2017-Nov-09 16:55N 40°39' W 074°11'0 0.0
2017-Nov-09 16:28N 40°39' W 074°11'0 0.0
2017-Nov-09 15:58N 40°39' W 074°11'0 0.0
2017-Nov-09 15:22N 40°39' W 074°11'0 0.0
2017-Nov-09 14:58N 40°39' W 074°11'0 0.0
2017-Nov-09 14:28N 40°39' W 074°11'0 0.0
2017-Nov-09 13:58N 40°39' W 074°11'0 0.0
2017-Nov-09 13:28N 40°39' W 074°11'0 0.0
2017-Nov-09 12:58N 40°39' W 074°11'0 0.0
2017-Nov-09 12:28N 40°39' W 074°11'0 0.1
2017-Nov-09 12:00N 40°39' W 074°11'2 5.0
2017-Nov-09 11:30N 40°39' W 074°08'3 6.6
2017-Nov-09 11:00N 40°39' W 074°04'3 5.8
2017-Nov-09 10:30N 40°36' W 074°03'612.4
2017-Nov-09 10:00N 40°31' W 073°58'510.1
2017-Nov-09 09:30N 40°28' W 073°52'4 8.2
2017-Nov-09 09:00N 40°26' W 073°48'4 7.1
2017-Nov-09 08:29N 40°23' W 073°46'2 4.4
2017-Nov-09 07:59N 40°21' W 073°46'4 8.7
2017-Nov-09 07:30N 40°16' W 073°45'  
2017-Nov-07 02:20N 26°33' W 079°46'619.4
2017-Nov-07 02:00N 26°28' W 079°50'1019.5
2017-Nov-07 01:30N 26°19' W 079°54'1019.0
2017-Nov-07 01:00N 26°10' W 079°58'714.4
2017-Nov-07 00:30N 26°06' W 080°05'2 4.6
2017-Nov-07 00:00N 26°05' W 080°07'0 0.6
2017-Nov-06 23:28N 26°04' W 080°07'0 0.0
2017-Nov-06 22:58N 26°04' W 080°07'0 0.0
2017-Nov-06 22:28N 26°04' W 080°07'0 0.0
2017-Nov-06 21:58N 26°04' W 080°07'0 0.0
2017-Nov-06 21:28N 26°04' W 080°07'0 0.0
2017-Nov-06 20:58N 26°04' W 080°07'0 0.0
2017-Nov-06 20:28N 26°04' W 080°07'  
Track history (hours):
 
Tides and Currents Weather Stations Pressure Air Temp Water Temp Dewpoint Dewpoint Depression Visibility Wind Speed Wind Dir Waves Ship Positions

Dubai Express

Last reported at 2017-Nov-16 09:01 UTC. Time now 2017-Nov-24 18:23 UTC.
Position N 25°47' W 079°38'.
Warning: this ship's position is 8 days out of date.

Type: Ship (hazmat cat A). MMSI: 477097400.

Date/timePositionNaut miles runAvg speedWind from/ knotsBaromVisibWave heightAir tempDewpointWater temp
2017-Nov-16 09:01N 25°47' W 079°38'017.3
2017-Nov-16 09:00N 25°47' W 079°38'816.2
2017-Nov-16 08:31N 25°53' W 079°44'816.3
2017-Nov-16 08:00N 25°57' W 079°52'816.1
2017-Nov-16 07:31N 26°03' W 079°59'612.3
2017-Nov-16 07:01N 26°05' W 080°05'2 3.8
2017-Nov-16 06:31N 26°05' W 080°07'0 0.4
2017-Nov-16 05:59N 26°04' W 080°07'0 0.0
2017-Nov-16 05:29N 26°04' W 080°07'0 0.0
2017-Nov-16 04:59N 26°04' W 080°07'0 0.0
2017-Nov-16 04:29N 26°04' W 080°07'0 0.0
2017-Nov-16 03:50N 26°04' W 080°07'0 0.0
2017-Nov-16 03:20N 26°04' W 080°07'0 0.0
2017-Nov-16 02:50N 26°04' W 080°07'0 0.0
2017-Nov-16 02:20N 26°04' W 080°07'0 0.0
2017-Nov-16 01:50N 26°04' W 080°07'0 0.0
2017-Nov-16 01:20N 26°04' W 080°07'0 0.0
2017-Nov-16 00:53N 26°04' W 080°07'0 0.0
2017-Nov-16 00:23N 26°04' W 080°07'0 0.0
2017-Nov-15 23:53N 26°04' W 080°07'0 0.0
2017-Nov-15 23:23N 26°04' W 080°07'0 0.0
2017-Nov-15 22:50N 26°04' W 080°07'0 0.0
2017-Nov-15 22:23N 26°04' W 080°07'0 0.0
2017-Nov-15 21:38N 26°04' W 080°07'0 0.0
2017-Nov-15 21:23N 26°04' W 080°07'0 0.0
2017-Nov-15 20:53N 26°04' W 080°07'0 0.0
2017-Nov-15 20:23N 26°04' W 080°07'0 0.0
2017-Nov-15 19:53N 26°04' W 080°07'0 0.0
2017-Nov-15 19:26N 26°04' W 080°07'0 0.0
2017-Nov-15 18:56N 26°04' W 080°07'0 0.0
2017-Nov-15 18:26N 26°04' W 080°07'0 0.0
2017-Nov-15 17:56N 26°04' W 080°07'0 0.0
2017-Nov-15 17:26N 26°04' W 080°07'0 0.5
2017-Nov-15 17:00N 26°04' W 080°07'1 2.3
2017-Nov-15 16:30N 26°06' W 080°07'4 8.9
2017-Nov-15 16:00N 26°05' W 080°02'3 7.0
2017-Nov-15 15:30N 26°04' W 079°58'1 1.2
2017-Nov-15 15:00N 26°03' W 079°59'3 6.4
2017-Nov-15 14:30N 26°07' W 079°59'3 6.5
2017-Nov-15 14:00N 26°10' W 079°59'510.3
2017-Nov-15 13:30N 26°15' W 079°58'510.4
2017-Nov-15 13:00N 26°20' W 079°58'612.6
2017-Nov-15 12:30N 26°26' W 079°57'713.1
2017-Nov-15 11:59N 26°33' W 079°56'612.4
2017-Nov-15 11:30N 26°39' W 079°55'815.9
2017-Nov-15 11:00N 26°47' W 079°53'1018.0
2017-Nov-15 10:27N 26°57' W 079°51'32917.8
2017-Nov-14 16:00N 32°25' W 079°32'813.9
2017-Nov-14 15:27N 32°33' W 079°33'5 9.9
2017-Nov-14 14:59N 32°37' W 079°35'612.1
2017-Nov-14 14:30N 32°40' W 079°41'713.7
2017-Nov-14 14:00N 32°43' W 079°48'811.4
2017-Nov-14 13:19N 32°49' W 079°55'2 5.4
2017-Nov-14 13:01N 32°50' W 079°54'0 0.1
2017-Nov-14 12:26N 32°50' W 079°54'0 0.0
2017-Nov-14 11:59N 32°50' W 079°54'0 0.0
2017-Nov-14 11:29N 32°50' W 079°54'0 0.0
2017-Nov-14 10:59N 32°50' W 079°54'0 0.0
2017-Nov-14 10:29N 32°50' W 079°54'0 0.0
2017-Nov-14 09:59N 32°50' W 079°54'0 0.0
2017-Nov-14 09:29N 32°50' W 079°54'0 0.0
2017-Nov-14 08:59N 32°50' W 079°54'0 0.0
2017-Nov-14 08:26N 32°50' W 079°54'0 0.0
2017-Nov-14 07:59N 32°50' W 079°54'0 0.0
2017-Nov-14 07:29N 32°50' W 079°54'0 0.0
2017-Nov-14 06:59N 32°50' W 079°54'0 0.0
2017-Nov-14 06:29N 32°50' W 079°54'0 0.0
2017-Nov-14 05:59N 32°50' W 079°54'0 0.0
2017-Nov-14 05:29N 32°50' W 079°54'0 0.0
2017-Nov-14 04:59N 32°50' W 079°54'0 0.0
2017-Nov-14 04:29N 32°50' W 079°54'0 0.0
2017-Nov-14 03:59N 32°50' W 079°54'0 0.0
2017-Nov-14 03:29N 32°50' W 079°54'0 0.0
2017-Nov-14 02:59N 32°50' W 079°54'0 0.0
2017-Nov-14 02:29N 32°50' W 079°54'0 0.0
2017-Nov-14 01:59N 32°50' W 079°54'0 0.0
2017-Nov-14 01:29N 32°50' W 079°54'0 0.0
2017-Nov-14 00:59N 32°50' W 079°54'0 0.0
2017-Nov-14 00:29N 32°50' W 079°54'0 0.0
2017-Nov-13 23:59N 32°50' W 079°54'0 0.1
2017-Nov-13 23:31N 32°50' W 079°54'3 5.4
2017-Nov-13 23:00N 32°48' W 079°55'510.4
2017-Nov-13 22:30N 32°44' W 079°50'815.2
2017-Nov-13 22:00N 32°40' W 079°43'314 8.7
2017-Nov-12 10:03N 36°51' W 075°52'010.0
2017-Nov-12 10:00N 36°52' W 075°52'5 9.8
2017-Nov-12 09:30N 36°55' W 075°56'4 8.9
2017-Nov-12 09:00N 36°58' W 075°60'6116.4
2017-Nov-12 05:18N 37°58' W 076°11'617.7
2017-Nov-12 04:59N 38°04' W 076°13'3017.5
2017-Nov-12 03:16N 38°32' W 076°26'516.9
2017-Nov-12 02:58N 38°37' W 076°26'817.0
2017-Nov-12 02:30N 38°45' W 076°26'917.5
2017-Nov-12 02:00N 38°54' W 076°24'815.7
2017-Nov-12 01:30N 39°02' W 076°23'714.6
2017-Nov-12 01:00N 39°09' W 076°25'611.0
2017-Nov-12 00:31N 39°12' W 076°30'4 8.3
2017-Nov-12 00:01N 39°15' W 076°34'1 1.0
2017-Nov-11 23:30N 39°15' W 076°33'0 0.0
2017-Nov-11 23:00N 39°15' W 076°33'0 0.0
2017-Nov-11 22:30N 39°15' W 076°33'0 0.0
2017-Nov-11 22:00N 39°15' W 076°33'0 0.0
2017-Nov-11 21:30N 39°15' W 076°33'0 0.0
2017-Nov-11 21:00N 39°15' W 076°33'0 0.0
2017-Nov-11 20:30N 39°15' W 076°33'0 0.0
2017-Nov-11 20:00N 39°15' W 076°33'0 0.0
2017-Nov-11 19:30N 39°15' W 076°33'0 0.0
2017-Nov-11 19:00N 39°15' W 076°33'0 0.0
2017-Nov-11 18:30N 39°15' W 076°33'0 0.0
2017-Nov-11 18:00N 39°15' W 076°33'0 0.0
2017-Nov-11 17:30N 39°15' W 076°33'0 0.0
2017-Nov-11 16:57N 39°15' W 076°33'0 0.0
2017-Nov-11 16:21N 39°15' W 076°33'0 0.0
2017-Nov-11 16:00N 39°15' W 076°33'0 0.0
2017-Nov-11 15:27N 39°15' W 076°33'0 0.0
2017-Nov-11 15:00N 39°15' W 076°33'0 0.0
2017-Nov-11 14:30N 39°15' W 076°33'0 0.0
2017-Nov-11 14:00N 39°15' W 076°33'0 0.0
2017-Nov-11 13:30N 39°15' W 076°33'0 0.0
2017-Nov-11 13:00N 39°15' W 076°33'0 0.0
2017-Nov-11 12:30N 39°15' W 076°33'0 0.0
2017-Nov-11 12:00N 39°15' W 076°33'0 0.4
2017-Nov-11 11:31N 39°15' W 076°33'2 3.7
2017-Nov-11 11:01N 39°13' W 076°32'4 8.5
2017-Nov-11 10:30N 39°11' W 076°28'713.0
2017-Nov-11 10:00N 39°05' W 076°24'815.5
2017-Nov-11 09:30N 38°58' W 076°24'815.9
2017-Nov-11 09:00N 38°50' W 076°24'1016.1
2017-Nov-11 08:22N 38°39' W 076°25'3715.6
2017-Nov-11 06:00N 38°04' W 076°13'4114.8
2017-Nov-11 03:14N 37°23' W 076°05'414.8
2017-Nov-11 02:58N 37°19' W 076°06'715.3
2017-Nov-11 02:30N 37°13' W 076°09'714.4
2017-Nov-11 02:00N 37°06' W 076°07'714.5
2017-Nov-11 01:30N 36°60' W 076°01'611.2
2017-Nov-11 01:01N 36°56' W 075°56'4 8.8
2017-Nov-11 00:30N 36°53' W 075°52'18212.0
2017-Nov-10 09:21N 39°29' W 073°53'1216.2
2017-Nov-10 08:39N 39°40' W 073°53'716.2
2017-Nov-10 08:13N 39°47' W 073°52'3513.0
2017-Nov-10 05:30N 40°22' W 073°48'5 9.5
2017-Nov-10 04:58N 40°27' W 073°48'4 8.5
2017-Nov-10 04:30N 40°29' W 073°53'5 9.7
2017-Nov-10 04:00N 40°31' W 073°59'713.4
2017-Nov-10 03:30N 40°37' W 074°03'4 7.4
2017-Nov-10 03:00N 40°39' W 074°07'2 4.4
2017-Nov-10 02:30N 40°39' W 074°10'1 1.6
2017-Nov-10 01:55N 40°39' W 074°11'0 0.0
2017-Nov-10 01:28N 40°39' W 074°11'0 0.0
2017-Nov-10 00:58N 40°39' W 074°11'0 0.0
2017-Nov-10 00:28N 40°39' W 074°11'0 0.0
2017-Nov-09 23:58N 40°39' W 074°11'0 0.0
2017-Nov-09 23:25N 40°39' W 074°11'0 0.0
2017-Nov-09 22:55N 40°39' W 074°11'0 0.0
2017-Nov-09 22:28N 40°39' W 074°11'0 0.0
2017-Nov-09 21:58N 40°39' W 074°11'0 0.0
2017-Nov-09 21:25N 40°39' W 074°11'0 0.0
2017-Nov-09 20:52N 40°39' W 074°11'0 0.0
2017-Nov-09 20:25N 40°39' W 074°11'0 0.0
2017-Nov-09 19:58N 40°39' W 074°11'0 0.0
2017-Nov-09 19:28N 40°39' W 074°11'0 0.0
2017-Nov-09 18:58N 40°39' W 074°11'0 0.0
2017-Nov-09 18:25N 40°39' W 074°11'0 0.0
2017-Nov-09 17:55N 40°39' W 074°11'0 0.0
2017-Nov-09 17:25N 40°39' W 074°11'0 0.0
2017-Nov-09 16:55N 40°39' W 074°11'0 0.0
2017-Nov-09 16:28N 40°39' W 074°11'0 0.0
2017-Nov-09 15:58N 40°39' W 074°11'0 0.0
2017-Nov-09 15:22N 40°39' W 074°11'0 0.0
2017-Nov-09 14:58N 40°39' W 074°11'0 0.0
2017-Nov-09 14:28N 40°39' W 074°11'0 0.0
2017-Nov-09 13:58N 40°39' W 074°11'0 0.0
2017-Nov-09 13:28N 40°39' W 074°11'0 0.0
2017-Nov-09 12:58N 40°39' W 074°11'0 0.0
2017-Nov-09 12:28N 40°39' W 074°11'0 0.1
2017-Nov-09 12:00N 40°39' W 074°11'2 5.0
2017-Nov-09 11:30N 40°39' W 074°08'3 6.6
2017-Nov-09 11:00N 40°39' W 074°04'3 5.8
2017-Nov-09 10:30N 40°36' W 074°03'612.4
2017-Nov-09 10:00N 40°31' W 073°58'510.1
2017-Nov-09 09:30N 40°28' W 073°52'4 8.2
2017-Nov-09 09:00N 40°26' W 073°48'4 7.1
2017-Nov-09 08:29N 40°23' W 073°46'2 4.4
2017-Nov-09 07:59N 40°21' W 073°46'4 8.7
2017-Nov-09 07:30N 40°16' W 073°45'  
2017-Nov-07 02:20N 26°33' W 079°46'619.4
2017-Nov-07 02:00N 26°28' W 079°50'1019.5
2017-Nov-07 01:30N 26°19' W 079°54'1019.0
2017-Nov-07 01:00N 26°10' W 079°58'714.4
2017-Nov-07 00:30N 26°06' W 080°05'2 4.6
2017-Nov-07 00:00N 26°05' W 080°07'0 0.6
2017-Nov-06 23:28N 26°04' W 080°07'0 0.0
2017-Nov-06 22:58N 26°04' W 080°07'0 0.0
2017-Nov-06 22:28N 26°04' W 080°07'0 0.0
2017-Nov-06 21:58N 26°04' W 080°07'0 0.0
2017-Nov-06 21:28N 26°04' W 080°07'0 0.0
2017-Nov-06 20:58N 26°04' W 080°07'0 0.0
2017-Nov-06 20:28N 26°04' W 080°07'  

Dump ship's entire track history